createdAt,value
2022-08-17T00:02:26.152Z,13.30
2022-08-17T00:05:33.488Z,13.73
2022-08-17T00:08:38.419Z,11.55
2022-08-17T00:11:43.085Z,12.23
2022-08-17T00:15:10.339Z,14.45
2022-08-17T00:18:53.778Z,12.85
2022-08-17T00:22:28.658Z,13.15
2022-08-17T00:25:05.287Z,14.77
2022-08-17T00:28:08.009Z,11.07
2022-08-17T00:31:11.533Z,12.68
2022-08-17T00:34:14.005Z,12.48
2022-08-17T00:37:17.868Z,13.65
2022-08-17T00:40:20.689Z,13.32
2022-08-17T00:43:32.042Z,14.07
2022-08-17T00:46:40.373Z,16.13
2022-08-17T00:49:42.861Z,14.98
2022-08-17T00:52:55.041Z,15.13
2022-08-17T00:55:58.599Z,13.48
2022-08-17T00:59:02.958Z,12.68
2022-08-17T01:02:07.214Z,13.40
2022-08-17T01:05:13.410Z,13.07
2022-08-17T01:08:20.351Z,16.00
2022-08-17T01:11:22.890Z,15.50
2022-08-17T01:14:26.930Z,15.07
2022-08-17T01:17:29.741Z,17.98
2022-08-17T01:20:43.107Z,14.05
2022-08-17T01:23:52.873Z,13.52
2022-08-17T01:26:56.607Z,14.60
2022-08-17T01:30:04.210Z,15.52
2022-08-17T01:33:26.643Z,17.13
2022-08-17T01:36:29.331Z,12.68
2022-08-17T01:39:37.060Z,12.50
2022-08-17T01:42:43.477Z,17.33
2022-08-17T01:45:49.527Z,13.38
2022-08-17T01:49:07.995Z,12.80
2022-08-17T01:52:12.944Z,14.02
2022-08-17T01:55:24.575Z,13.25
2022-08-17T01:58:29.853Z,13.02
2022-08-17T02:01:34.614Z,12.93
2022-08-17T02:04:37.264Z,15.63
2022-08-17T02:07:56.015Z,14.40
2022-08-17T02:11:06.069Z,13.32
2022-08-17T02:14:14.325Z,14.20
2022-08-17T02:17:16.899Z,14.25
2022-08-17T02:20:41.376Z,15.77
2022-08-17T02:23:47.423Z,15.48
2022-08-17T02:26:51.223Z,13.57
2022-08-17T02:29:53.717Z,14.38
2022-08-17T02:32:57.030Z,14.27
2022-08-17T02:35:59.560Z,18.05
2022-08-17T02:39:03.118Z,15.38
2022-08-17T02:42:07.220Z,13.75
2022-08-17T02:45:13.545Z,18.35
2022-08-17T02:48:16.014Z,17.48
2022-08-17T02:51:33.413Z,17.25
2022-08-17T02:54:41.473Z,15.35
2022-08-17T02:57:46.525Z,16.30
2022-08-17T03:00:49.083Z,16.15
2022-08-17T03:03:51.554Z,15.25
2022-08-17T03:06:55.113Z,16.10
2022-08-17T03:09:57.546Z,15.60
2022-08-17T03:13:01.653Z,15.43
2022-08-17T03:16:04.850Z,15.73
2022-08-17T03:19:07.296Z,13.93
2022-08-17T03:22:36.713Z,15.40
2022-08-17T03:25:34.949Z,15.25
2022-08-17T03:28:39.660Z,14.77
2022-08-17T03:31:42.113Z,16.90
2022-08-17T03:34:44.599Z,15.02
2022-08-17T03:37:47.636Z,16.20
2022-08-17T03:41:03.168Z,14.13
2022-08-17T03:44:07.254Z,15.82
2022-08-17T03:47:27.425Z,15.63
2022-08-17T03:51:02.327Z,16.83
2022-08-17T03:54:22.810Z,15.77
2022-08-17T03:57:25.755Z,16.38
2022-08-17T04:00:29.575Z,15.77
2022-08-17T04:03:32.049Z,23.67
2022-08-17T04:06:34.579Z,17.23
2022-08-17T04:09:37.446Z,17.20
2022-08-17T04:12:46.358Z,16.25
2022-08-17T04:15:50.694Z,14.90
2022-08-17T04:18:53.688Z,15.25
2022-08-17T04:21:57.718Z,15.65
2022-08-17T04:25:00.299Z,17.52
2022-08-17T04:28:03.942Z,18.00
2022-08-17T04:31:11.425Z,18.02
2022-08-17T04:34:13.874Z,17.55
2022-08-17T04:37:16.421Z,17.92
2022-08-17T04:40:37.776Z,17.77
2022-08-17T04:43:42.123Z,21.50
2022-08-17T04:46:46.856Z,16.42
2022-08-17T04:49:49.279Z,15.40
2022-08-17T04:52:51.962Z,13.40
2022-08-17T04:55:55.412Z,13.32
2022-08-17T04:59:00.328Z,13.20
2022-08-17T05:02:04.130Z,12.93
2022-08-17T05:05:07.332Z,13.15
2022-08-17T05:08:10.428Z,13.63
2022-08-17T05:11:12.876Z,11.50
2022-08-17T05:14:15.867Z,11.63
2022-08-17T05:17:19.635Z,11.70
2022-08-17T05:20:22.520Z,11.52
2022-08-17T05:23:27.438Z,12.10
2022-08-17T05:26:41.722Z,10.65
2022-08-17T05:29:44.989Z,11.52
2022-08-17T05:32:54.494Z,11.05
2022-08-17T05:35:59.462Z,16.00
2022-08-17T05:39:02.212Z,13.25
2022-08-17T05:42:04.987Z,11.85
2022-08-17T05:45:08.630Z,11.02
2022-08-17T05:48:13.124Z,17.15
2022-08-17T05:51:32.916Z,10.65
2022-08-17T05:54:44.603Z,10.73
2022-08-17T05:58:00.860Z,13.30
2022-08-17T06:01:10.942Z,13.30
2022-08-17T06:04:35.768Z,14.35
2022-08-17T06:07:49.290Z,13.75
2022-08-17T06:10:59.745Z,12.98
2022-08-17T06:14:14.550Z,16.10
2022-08-17T06:17:21.950Z,14.32
2022-08-17T06:20:27.996Z,11.05
2022-08-17T06:23:35.987Z,12.02
2022-08-17T06:26:43.412Z,12.40
2022-08-17T06:29:53.912Z,15.00
2022-08-17T06:33:05.944Z,12.03
2022-08-17T06:36:24.974Z,11.18
2022-08-17T06:39:38.804Z,11.70
2022-08-17T06:43:06.180Z,10.70
2022-08-17T06:46:14.332Z,10.07
2022-08-17T06:49:25.339Z,10.38
2022-08-17T06:52:46.923Z,10.80
2022-08-17T06:55:56.793Z,12.02
2022-08-17T06:59:00.761Z,10.85
2022-08-17T07:02:08.105Z,9.68
2022-08-17T07:05:10.753Z,9.60
2022-08-17T07:08:20.595Z,8.77
2022-08-17T07:11:28.528Z,9.68
2022-08-17T07:14:36.604Z,9.60
2022-08-17T07:17:56.826Z,8.88
2022-08-17T07:21:08.371Z,9.57
2022-08-17T07:24:30.464Z,8.60
2022-08-17T07:27:37.325Z,8.68
2022-08-17T07:30:45.907Z,11.73
2022-08-17T07:34:01.163Z,11.38
2022-08-17T07:37:05.388Z,7.63
2022-08-17T07:40:23.561Z,8.40
2022-08-17T07:43:29.532Z,8.55
2022-08-17T07:46:54.107Z,8.35
2022-08-17T07:49:56.553Z,6.75
2022-08-17T07:53:10.626Z,7.60
2022-08-17T07:56:34.433Z,11.93
2022-08-17T07:59:40.738Z,6.95
2022-08-17T08:02:59.856Z,9.88
2022-08-17T08:06:04.107Z,7.20
2022-08-17T08:09:06.541Z,6.88
2022-08-17T08:12:33.787Z,8.82
2022-08-17T08:15:40.307Z,7.57
2022-08-17T08:18:55.915Z,7.80
2022-08-17T08:22:06.038Z,6.78
2022-08-17T08:25:20.994Z,7.28
2022-08-17T08:28:30.866Z,11.45
2022-08-17T08:31:48.487Z,9.73
2022-08-17T08:35:03.867Z,6.90
2022-08-17T08:38:16.233Z,7.88
2022-08-17T08:41:31.444Z,5.90
2022-08-17T08:45:00.585Z,6.20
2022-08-17T08:48:53.899Z,6.93
2022-08-17T08:51:52.767Z,5.10
2022-08-17T08:55:03.935Z,8.23
2022-08-17T08:58:31.455Z,8.77
2022-08-17T09:01:40.286Z,6.00
2022-08-17T09:05:13.771Z,5.18
2022-08-17T09:08:28.787Z,7.75
2022-08-17T09:12:02.011Z,6.75
2022-08-17T09:15:12.294Z,6.07
2022-08-17T09:19:00.613Z,6.70
2022-08-17T09:21:52.473Z,6.43
2022-08-17T09:25:00.875Z,5.22
2022-08-17T09:28:08.703Z,5.85
2022-08-17T09:31:17.647Z,5.40
2022-08-17T09:34:33.161Z,4.90
2022-08-17T09:37:44.601Z,5.72
2022-08-17T09:40:53.248Z,4.88
2022-08-17T09:44:03.315Z,4.68
2022-08-17T09:47:11.867Z,7.13
2022-08-17T09:50:20.150Z,7.15
2022-08-17T09:53:44.754Z,6.47
2022-08-17T09:57:25.922Z,4.80
2022-08-17T10:00:25.102Z,7.68
2022-08-17T10:03:44.118Z,5.13
2022-08-17T10:06:55.389Z,4.38
2022-08-17T10:10:02.562Z,4.45
2022-08-17T10:13:11.000Z,11.75
2022-08-17T10:16:22.650Z,5.78
2022-08-17T10:19:34.232Z,6.28
2022-08-17T10:23:02.338Z,5.53
2022-08-17T10:26:14.838Z,4.85
2022-08-17T10:29:23.519Z,4.93
2022-08-17T10:32:34.387Z,7.30
2022-08-17T10:35:44.129Z,8.63
2022-08-17T10:38:50.832Z,4.07
2022-08-17T10:41:58.749Z,6.35
2022-08-17T10:45:07.090Z,4.60
2022-08-17T10:48:32.834Z,6.35
2022-08-17T10:51:37.974Z,4.03
2022-08-17T10:54:49.089Z,5.55
2022-08-17T10:57:54.798Z,4.20
2022-08-17T11:00:59.537Z,5.60
2022-08-17T11:04:12.120Z,4.97
2022-08-17T11:07:31.924Z,4.55
2022-08-17T11:10:51.985Z,8.17
2022-08-17T11:14:11.115Z,6.15
2022-08-17T11:17:36.190Z,6.10
2022-08-17T11:21:05.665Z,5.40
2022-08-17T11:24:30.538Z,5.15
2022-08-17T11:27:36.568Z,5.32
2022-08-17T11:30:46.981Z,8.07
2022-08-17T11:33:59.138Z,5.78
2022-08-17T11:37:31.791Z,6.00
2022-08-17T11:40:43.175Z,4.80
2022-08-17T11:44:01.907Z,5.55
2022-08-17T11:47:31.077Z,6.88
2022-08-17T11:51:02.931Z,8.32
2022-08-17T11:58:01.658Z,7.10
2022-08-17T12:01:06.911Z,6.57
2022-08-17T12:04:24.964Z,9.18
2022-08-17T12:07:27.611Z,4.85
2022-08-17T12:10:32.394Z,6.75
2022-08-17T12:13:43.233Z,5.97
2022-08-17T12:16:59.039Z,6.15
2022-08-17T12:20:16.142Z,6.38
2022-08-17T12:23:27.141Z,7.13
2022-08-17T12:26:33.202Z,8.95
2022-08-17T12:29:38.827Z,7.30
2022-08-17T12:32:47.625Z,6.30
2022-08-17T12:35:59.319Z,5.55
2022-08-17T12:39:13.860Z,4.82
2022-08-17T12:42:24.777Z,5.45
2022-08-17T12:45:30.286Z,5.13
2022-08-17T12:48:36.205Z,7.13
2022-08-17T12:51:44.091Z,6.40
2022-08-17T12:54:51.077Z,4.20
2022-08-17T12:57:55.390Z,7.18
2022-08-17T13:01:01.043Z,5.45
2022-08-17T13:04:06.557Z,4.18
2022-08-17T13:07:09.026Z,4.80
2022-08-17T13:10:18.250Z,7.18
2022-08-17T13:13:24.264Z,6.75
2022-08-17T13:16:28.779Z,5.05
2022-08-17T13:19:40.925Z,6.55
2022-08-17T13:22:45.288Z,7.00
2022-08-17T13:25:54.484Z,4.32
2022-08-17T13:28:57.431Z,3.33
2022-08-17T13:32:19.815Z,5.63
2022-08-17T13:35:39.267Z,7.60
2022-08-17T13:38:47.876Z,6.38
2022-08-17T13:41:52.235Z,5.88
2022-08-17T13:44:54.691Z,3.88
2022-08-17T13:48:10.954Z,3.55
2022-08-17T13:51:26.586Z,3.97
2022-08-17T13:54:31.946Z,6.68
2022-08-17T13:57:35.843Z,4.20
2022-08-17T14:00:39.436Z,4.18
2022-08-17T14:03:41.888Z,7.65
2022-08-17T14:06:53.997Z,5.90
2022-08-17T14:10:01.314Z,6.90
2022-08-17T14:13:04.597Z,7.57
2022-08-17T14:16:07.497Z,4.97
2022-08-17T14:19:11.510Z,8.55
2022-08-17T14:22:23.680Z,5.55
2022-08-17T14:25:28.759Z,5.80
2022-08-17T14:28:31.983Z,4.55
2022-08-17T14:31:37.623Z,4.45
2022-08-17T14:34:40.265Z,7.18
2022-08-17T14:37:45.645Z,3.92
2022-08-17T14:40:48.879Z,6.10
2022-08-17T14:43:52.889Z,5.03
2022-08-17T14:46:55.345Z,5.88
2022-08-17T14:49:59.147Z,4.13
2022-08-17T14:53:04.385Z,4.80
2022-08-17T14:56:07.322Z,4.90
2022-08-17T14:59:09.870Z,6.32
2022-08-17T15:02:13.177Z,8.27
2022-08-17T15:05:17.753Z,7.82
2022-08-17T15:08:21.566Z,6.00
2022-08-17T15:11:24.108Z,6.50
2022-08-17T15:14:26.664Z,4.88
2022-08-17T15:17:45.000Z,8.15
2022-08-17T15:20:52.735Z,4.65
2022-08-17T15:23:56.613Z,7.00
2022-08-17T15:26:59.071Z,5.57
2022-08-17T15:30:01.717Z,6.00
2022-08-17T15:33:05.090Z,5.82
2022-08-17T15:36:09.054Z,10.90
2022-08-17T15:39:12.850Z,5.63
2022-08-17T15:42:16.149Z,6.05
2022-08-17T15:45:24.607Z,7.95
2022-08-17T15:48:40.730Z,7.50
2022-08-17T15:51:43.281Z,9.07
2022-08-17T15:54:52.063Z,5.03
2022-08-17T15:57:55.233Z,5.30
2022-08-17T16:01:15.143Z,6.78
2022-08-17T16:04:29.722Z,6.20
2022-08-17T16:07:33.347Z,7.03
2022-08-17T16:10:37.336Z,5.38
2022-08-17T16:13:40.652Z,7.32
2022-08-17T16:16:43.150Z,6.70
2022-08-17T16:19:46.037Z,6.05
2022-08-17T16:22:50.878Z,4.65
2022-08-17T16:25:54.863Z,6.65
2022-08-17T16:28:59.145Z,7.90
2022-08-17T16:32:10.068Z,9.30
2022-08-17T16:38:18.765Z,10.25
2022-08-17T16:41:45.290Z,5.93
2022-08-17T16:44:48.171Z,7.18
2022-08-17T16:47:52.030Z,7.82
2022-08-17T16:51:03.534Z,6.68
2022-08-17T16:54:08.275Z,9.52
2022-08-17T16:57:12.458Z,7.57
2022-08-17T17:00:16.986Z,7.35
2022-08-17T17:03:25.749Z,9.98
2022-08-17T17:06:40.688Z,13.98
2022-08-17T17:09:46.420Z,7.35
2022-08-17T17:13:03.566Z,10.38
2022-08-17T17:16:17.967Z,13.52
2022-08-17T17:19:34.356Z,8.15
2022-08-17T17:22:47.264Z,8.77
2022-08-17T17:25:55.787Z,10.15
2022-08-17T17:29:12.317Z,11.73
2022-08-17T17:32:21.395Z,10.05
2022-08-17T17:35:31.574Z,9.23
2022-08-17T17:38:41.435Z,9.48
2022-08-17T17:41:48.166Z,9.05
2022-08-17T17:45:00.365Z,8.60
2022-08-17T17:48:03.168Z,10.95
2022-08-17T17:51:16.038Z,14.13
2022-08-17T17:54:50.500Z,8.07
2022-08-17T17:58:04.159Z,8.38
2022-08-17T18:01:41.793Z,10.07
2022-08-17T18:05:00.107Z,12.85
2022-08-17T18:08:16.551Z,7.65
2022-08-17T18:11:32.370Z,11.60
2022-08-17T18:14:58.595Z,12.48
2022-08-17T18:18:26.240Z,10.82
2022-08-17T18:21:35.964Z,8.73
2022-08-17T18:24:40.546Z,9.88
2022-08-17T18:27:52.685Z,9.05
2022-08-17T18:31:07.865Z,7.93
2022-08-17T18:34:45.850Z,11.43
2022-08-17T18:37:50.218Z,9.10
2022-08-17T18:41:06.273Z,10.80
2022-08-17T18:44:24.643Z,10.80
2022-08-17T18:47:29.769Z,9.63
2022-08-17T18:50:41.223Z,8.82
2022-08-17T18:53:43.764Z,9.75
2022-08-17T18:56:51.574Z,10.18
2022-08-17T18:59:54.111Z,10.57
2022-08-17T19:03:00.827Z,10.93
2022-08-17T19:06:22.838Z,15.30
2022-08-17T19:09:33.589Z,9.27
2022-08-17T19:12:40.890Z,12.23
2022-08-17T19:16:13.124Z,11.70
2022-08-17T19:19:18.662Z,10.40
2022-08-17T19:22:29.303Z,9.05
2022-08-17T19:25:37.062Z,10.70
2022-08-17T19:28:48.018Z,8.93
2022-08-17T19:31:55.204Z,15.40
2022-08-17T19:34:58.439Z,10.80
2022-08-17T19:38:12.863Z,9.27
2022-08-17T19:41:23.372Z,8.93
2022-08-17T19:44:42.724Z,15.57
2022-08-17T19:48:01.671Z,11.05
2022-08-17T19:51:11.498Z,9.02
2022-08-17T19:54:22.089Z,9.13
2022-08-17T19:57:36.701Z,13.45
2022-08-17T20:00:46.926Z,12.73
2022-08-17T20:03:57.354Z,12.60
2022-08-17T20:07:04.398Z,11.43
2022-08-17T20:10:13.888Z,15.52
2022-08-17T20:13:33.525Z,9.88
2022-08-17T20:16:36.754Z,9.52
2022-08-17T20:19:48.557Z,12.43
2022-08-17T20:22:57.937Z,13.50
2022-08-17T20:26:17.179Z,9.77
2022-08-17T20:29:37.472Z,10.75
2022-08-17T20:32:52.919Z,10.57
2022-08-17T20:36:16.986Z,10.15
2022-08-17T20:39:34.654Z,13.65
2022-08-17T20:42:40.303Z,10.85
2022-08-17T20:46:20.192Z,9.82
2022-08-17T20:49:28.653Z,11.38
2022-08-17T20:52:52.372Z,9.80
2022-08-17T20:55:55.763Z,12.25
2022-08-17T20:59:00.760Z,11.05
2022-08-17T21:02:18.483Z,12.43
2022-08-17T21:05:32.330Z,9.93
2022-08-17T21:08:45.684Z,13.98
2022-08-17T21:12:03.733Z,11.90
2022-08-17T21:15:24.140Z,13.77
2022-08-17T21:18:35.925Z,11.57
2022-08-17T21:21:46.675Z,11.43
2022-08-17T21:24:58.639Z,14.43
2022-08-17T21:28:15.644Z,10.95
2022-08-17T21:31:35.844Z,10.68
2022-08-17T21:34:42.433Z,12.95
2022-08-17T21:37:47.943Z,11.10
2022-08-17T21:40:53.065Z,17.45
2022-08-17T21:44:03.047Z,12.52
2022-08-17T21:47:21.382Z,11.40
2022-08-17T21:50:26.220Z,10.80
2022-08-17T21:53:38.854Z,11.45
2022-08-17T21:56:46.812Z,10.82
2022-08-17T21:59:54.519Z,10.38
2022-08-17T22:03:01.070Z,11.13
2022-08-17T22:06:21.088Z,11.15
2022-08-17T22:09:26.536Z,11.20
2022-08-17T22:12:30.436Z,10.40
2022-08-17T22:15:36.906Z,10.35
2022-08-17T22:18:45.040Z,13.13
2022-08-17T22:21:47.534Z,13.70
2022-08-17T22:24:56.836Z,14.90
2022-08-17T22:28:02.195Z,11.32
2022-08-17T22:31:05.651Z,9.93
2022-08-17T22:34:13.779Z,10.98
2022-08-17T22:37:21.342Z,13.73
2022-08-17T22:40:32.661Z,14.30
2022-08-17T22:43:39.061Z,12.18
2022-08-17T22:46:56.235Z,10.75
2022-08-17T22:50:02.731Z,13.77
2022-08-17T22:53:34.024Z,11.90
2022-08-17T22:56:55.342Z,9.88
2022-08-17T22:59:57.991Z,11.75
2022-08-17T23:03:11.249Z,12.70
2022-08-17T23:06:15.103Z,11.10
2022-08-17T23:09:17.603Z,11.63
2022-08-17T23:12:26.227Z,12.30
2022-08-17T23:15:33.903Z,11.30
2022-08-17T23:18:36.401Z,12.80
2022-08-17T23:21:40.664Z,10.48
2022-08-17T23:24:46.361Z,13.65
2022-08-17T23:27:49.637Z,11.07
2022-08-17T23:30:52.231Z,11.45
2022-08-17T23:33:54.880Z,11.90
2022-08-17T23:37:02.099Z,10.48
2022-08-17T23:40:05.604Z,13.05
2022-08-17T23:43:23.336Z,12.50
2022-08-17T23:46:28.346Z,11.02
2022-08-17T23:49:31.227Z,12.40
2022-08-17T23:52:36.818Z,10.80
2022-08-17T23:55:39.329Z,10.23
2022-08-17T23:58:43.550Z,11.32
